Time;durP1;ratioP1;P1;durP2;ratioP2;P2;SDS_P1;SDS_P2;PMS_P1;PMS_P2;Temp;Humidity;BMP_temperature;BMP_pressure;BME280_temperature;BME280_humidity;BME280_pressure;Samples;Min_cycle;Max_cycle;Signal;HPM_P1;HPM_P2
2023/10/05 00:01:21;;;;;;;13.20;3.92;;;;;;;12.85;100.00;102079.09;5069232;28;20049;-44
2023/10/05 00:03:51;;;;;;;11.30;4.03;;;;;;;12.86;100.00;102091.38;5071157;28;20048;-45
2023/10/05 00:06:24;;;;;;;13.98;3.30;;;;;;;12.87;100.00;102094.88;5068069;28;20036;-45
2023/10/05 00:08:53;;;;;;;;;;;;;;;12.91;100.00;102099.91;5068699;28;20088;-45
2023/10/05 00:11:29;;;;;;;6.85;2.40;;;;;;;12.91;100.00;102105.19;5066774;28;19956;-43
2023/10/05 00:14:02;;;;;;;11.95;2.88;;;;;;;12.91;100.00;102105.19;5067984;28;20106;-44
2023/10/05 00:16:37;;;;;;;10.68;3.20;;;;;;;12.95;100.00;102097.94;5068151;28;20127;-44
2023/10/05 00:19:10;;;;;;;8.27;2.58;;;;;;;12.92;100.00;102095.47;5067849;28;20136;-47
2023/10/05 00:21:48;;;;;;;11.38;2.90;;;;;;;12.94;100.00;102104.13;5066921;28;20074;-45
2023/10/05 00:24:18;;;;;;;13.75;2.78;;;;;;;12.97;100.00;102102.19;5065816;28;20519;-45
2023/10/05 00:26:47;;;;;;;10.48;3.15;;;;;;;12.98;100.00;102103.06;5065672;28;20478;-46
2023/10/05 00:29:19;;;;;;;9.23;2.58;;;;;;;13.00;100.00;102095.91;5067107;28;20511;-45
2023/10/05 00:31:48;;;;;;;10.80;3.20;;;;;;;13.01;100.00;102102.88;5067859;28;20052;-45
2023/10/05 00:34:21;;;;;;;12.30;2.97;;;;;;;13.01;100.00;102102.88;5070845;28;20480;-45
2023/10/05 00:36:52;;;;;;;13.10;3.72;;;;;;;13.03;100.00;102106.28;5069066;28;20045;-46
2023/10/05 00:39:21;;;;;;;12.48;3.10;;;;;;;13.05;100.00;102109.69;5067200;28;20565;-45
2023/10/05 00:41:56;;;;;;;9.68;3.20;;;;;;;13.06;100.00;102107.91;5066302;28;20041;-46
2023/10/05 00:44:29;;;;;;;10.65;2.83;;;;;;;13.05;100.00;102107.06;5070907;28;20045;-45
2023/10/05 00:47:00;;;;;;;11.55;2.97;;;;;;;13.05;100.00;102103.53;5068189;28;20511;-44
2023/10/05 00:49:30;;;;;;;9.32;2.40;;;;;;;13.07;100.00;102107.81;5067531;28;20056;-46
2023/10/05 00:52:11;;;;;;;9.45;2.88;;;;;;;13.09;100.00;102105.94;5067492;28;20048;-46
2023/10/05 00:54:40;;;;;;;11.45;3.05;;;;;;;13.10;100.00;102106.78;5070515;28;20432;-46
2023/10/05 00:57:09;;;;;;;10.98;3.28;;;;;;;13.12;100.00;102107.56;5070159;28;20114;-45
2023/10/05 00:59:40;;;;;;;10.73;2.95;;;;;;;13.13;100.00;102101.31;5067328;28;20044;-46
2023/10/05 01:02:15;;;;;;;9.27;3.22;;;;;;;13.15;100.00;102104.75;5069208;28;20041;-44
2023/10/05 01:04:55;;;;;;;7.32;2.83;;;;;;;13.14;100.00;102097.75;5072793;28;20057;-47
2023/10/05 01:07:49;;;;;;;11.75;3.13;;;;;;;13.15;100.00;102095.03;5071185;28;20053;-46
2023/10/05 01:13:00;;;;;;;9.67;2.73;;;;;;;13.15;100.00;102097.66;5071557;28;20059;-44
2023/10/05 01:15:33;;;;;;;10.15;2.53;;;;;;;13.15;100.00;102096.81;5069318;28;20051;-44
2023/10/05 01:18:02;;;;;;;12.07;2.92;;;;;;;13.13;100.00;102094.28;5070447;28;20063;-48
2023/10/05 01:20:36;;;;;;;9.80;2.90;;;;;;;13.13;100.00;102090.75;5070387;28;20044;-45
2023/10/05 01:23:06;;;;;;;11.98;3.58;;;;;;;13.12;100.00;102091.72;5070658;28;20048;-45
2023/10/05 01:25:36;;;;;;;12.00;3.47;;;;;;;13.12;100.00;102087.28;5073284;28;20037;-45
2023/10/05 01:28:07;;;;;;;10.25;2.85;;;;;;;13.12;100.00;102084.63;5073885;28;20040;-46
2023/10/05 01:30:38;;;;;;;10.25;3.28;;;;;;;13.14;100.00;102077.50;5073901;28;20110;-43
2023/10/05 01:33:09;;;;;;;;;;;;;;;13.18;100.00;102078.16;5074125;28;20048;-45
2023/10/05 01:35:41;;;;;;;9.32;2.80;;;;;;;13.16;100.00;102075.59;5072117;28;19924;-45
2023/10/05 01:38:13;;;;;;;10.70;3.03;;;;;;;13.18;100.00;102086.94;5073527;28;20357;-44
2023/10/05 01:40:54;;;;;;;8.00;2.60;;;;;;;13.14;100.00;102082.78;5073384;28;20102;-44
2023/10/05 01:43:22;;;;;;;11.25;2.60;;;;;;;13.16;100.00;102077.41;5072992;28;20076;-45
2023/10/05 01:45:50;;;;;;;15.32;2.80;;;;;;;13.14;100.00;102085.41;5071595;28;20448;-45
2023/10/05 01:48:26;;;;;;;10.65;2.72;;;;;;;13.12;100.00;102081.16;5069002;28;20059;-44
2023/10/05 01:50:54;;;;;;;11.25;3.08;;;;;;;13.10;100.00;102083.88;5069886;28;20388;-44
2023/10/05 01:53:24;;;;;;;10.50;2.78;;;;;;;13.08;100.00;102071.72;5070049;28;20056;-45
2023/10/05 01:55:53;;;;;;;13.38;3.17;;;;;;;13.06;100.00;102073.56;5068888;28;20045;-44
2023/10/05 01:58:34;;;;;;;10.55;2.80;;;;;;;13.04;100.00;102072.81;5069279;28;20532;-43
2023/10/05 02:01:06;;;;;;;10.88;2.83;;;;;;;12.99;100.00;102073.94;5069824;28;20051;-46
2023/10/05 02:03:35;;;;;;;12.25;3.00;;;;;;;12.95;100.00;102074.16;5070124;28;20388;-45
2023/10/05 02:06:11;;;;;;;10.23;2.85;;;;;;;12.90;100.00;102074.44;5068408;28;20059;-45
2023/10/05 02:08:41;;;;;;;8.93;2.80;;;;;;;12.90;100.00;102066.50;5071809;28;20045;-45
2023/10/05 02:11:09;;;;;;;15.43;2.80;;;;;;;12.82;100.00;102076.66;5073168;28;20561;-46
2023/10/05 02:13:41;;;;;;;9.57;2.80;;;;;;;12.81;100.00;102075.78;5073002;28;20071;-48
2023/10/05 02:16:14;;;;;;;12.75;3.25;;;;;;;12.80;100.00;102070.59;5072740;28;20041;-44
2023/10/05 02:18:42;;;;;;;10.35;3.10;;;;;;;12.77;100.00;102068.13;5072767;28;20041;-44
2023/10/05 02:21:17;;;;;;;13.43;3.22;;;;;;;12.74;100.00;102063.84;5072842;28;20053;-45
2023/10/05 02:23:51;;;;;;;8.38;3.10;;;;;;;12.70;100.00;102067.59;5070491;28;20097;-48
2023/10/05 02:26:28;;;;;;;9.95;3.13;;;;;;;12.71;100.00;102073.72;5068262;28;20040;-47
2023/10/05 02:28:57;;;;;;;11.90;2.88;;;;;;;12.72;100.00;102060.47;5069475;28;20036;-45
2023/10/05 02:31:28;;;;;;;11.48;3.17;;;;;;;12.72;100.00;102065.75;5070375;28;20048;-45
2023/10/05 02:33:58;;;;;;;9.10;2.92;;;;;;;12.71;100.00;102069.31;5072380;28;20140;-45
2023/10/05 02:36:27;;;;;;;12.35;3.65;;;;;;;12.67;100.00;102068.63;5072338;28;20135;-46
2023/10/05 02:39:00;;;;;;;11.50;3.38;;;;;;;12.71;100.00;102057.88;5069548;28;20051;-45
2023/10/05 02:41:37;;;;;;;8.43;3.00;;;;;;;12.66;100.00;102061.63;5067217;28;20129;-45
2023/10/05 02:44:22;;;;;;;11.80;3.15;;;;;;;12.63;100.00;102056.53;5069318;28;20701;-45
2023/10/05 02:46:51;;;;;;;11.30;3.47;;;;;;;12.64;100.00;102046.84;5068943;28;20040;-44
2023/10/05 02:49:23;;;;;;;11.95;3.08;;;;;;;12.59;100.00;102052.34;5069115;28;20048;-44
2023/10/05 02:51:52;;;;;;;11.65;3.25;;;;;;;12.58;100.00;102049.81;5068405;28;20567;-46
2023/10/05 02:54:24;;;;;;;12.40;3.47;;;;;;;12.52;100.00;102043.91;5069462;28;20491;-45
2023/10/05 02:56:53;;;;;;;18.05;3.85;;;;;;;12.51;100.00;102046.63;5065857;28;20135;-42
2023/10/05 02:59:27;;;;;;;10.38;3.40;;;;;;;12.48;100.00;102041.53;5068482;28;20047;-44
2023/10/05 03:02:00;;;;;;;9.73;3.25;;;;;;;12.48;100.00;102045.03;5068931;28;20726;-45
2023/10/05 03:04:44;;;;;;;11.30;3.25;;;;;;;12.46;100.00;102056.59;5068689;28;20048;-43
2023/10/05 03:07:15;;;;;;;10.75;3.50;;;;;;;12.44;100.00;102055.84;5068089;28;20037;-45
2023/10/05 03:09:46;;;;;;;12.05;3.47;;;;;;;12.40;100.00;102059.56;5071371;28;20075;-45
2023/10/05 03:12:20;;;;;;;12.38;3.67;;;;;;;12.41;100.00;102050.72;5071577;28;20783;-45
2023/10/05 03:14:51;;;;;;;12.77;3.38;;;;;;;12.45;100.00;102052.28;5069143;28;20455;-44
2023/10/05 03:17:21;;;;;;;12.35;3.83;;;;;;;12.48;100.00;102049.47;5067454;28;20055;-44
2023/10/05 03:19:51;;;;;;;12.30;4.20;;;;;;;12.45;100.00;102049.63;5067518;28;20068;-47
2023/10/05 03:22:23;;;;;;;11.57;3.75;;;;;;;12.42;100.00;102047.13;5068123;28;20123;-47
2023/10/05 03:24:56;;;;;;;14.95;4.32;;;;;;;12.40;100.00;102043.75;5068472;28;20434;-46
2023/10/05 03:27:25;;;;;;;11.02;4.35;;;;;;;12.37;100.00;102044.75;5067090;28;20049;-45
2023/10/05 03:30:00;;;;;;;12.55;3.70;;;;;;;12.39;100.00;102044.66;5068322;28;20097;-47
2023/10/05 03:32:29;;;;;;;11.07;3.92;;;;;;;12.34;100.00;102045.78;5067266;28;20076;-46
2023/10/05 03:34:58;;;;;;;14.30;3.67;;;;;;;12.28;100.00;102051.34;5068490;28;20045;-47
2023/10/05 03:37:29;;;;;;;9.88;3.70;;;;;;;12.28;100.00;102043.44;5070644;28;20461;-46
2023/10/05 03:40:07;;;;;;;10.45;3.92;;;;;;;12.30;100.00;102049.50;5066971;28;20129;-44
2023/10/05 03:42:36;;;;;;;12.23;3.83;;;;;;;12.30;100.00;102052.16;5068127;28;20075;-48
2023/10/05 03:45:09;;;;;;;10.13;3.92;;;;;;;12.29;100.00;102053.06;5068279;28;20427;-44
2023/10/05 03:47:38;;;;;;;11.23;4.10;;;;;;;12.32;100.00;102052.06;5068401;28;20114;-45
2023/10/05 03:50:08;;;;;;;12.93;3.75;;;;;;;12.31;100.00;102051.22;5067645;28;20037;-43
2023/10/05 03:52:37;;;;;;;12.45;4.40;;;;;;;12.36;100.00;102053.59;5066974;28;20063;-44
2023/10/05 03:55:10;;;;;;;13.73;4.13;;;;;;;12.36;100.00;102052.75;5069823;28;20502;-44
2023/10/05 03:57:38;;;;;;;;;;;;;;;12.37;100.00;102049.19;5071839;28;20495;-44
2023/10/05 04:00:22;;;;;;;12.80;4.28;;;;;;;12.36;100.00;102056.22;5067756;28;19924;-47
2023/10/05 04:02:52;;;;;;;14.00;4.38;;;;;;;12.36;100.00;102058.03;5068189;28;20044;-45
2023/10/05 04:05:22;;;;;;;14.73;4.30;;;;;;;12.37;100.00;102065.84;5067972;28;20155;-46
2023/10/05 04:07:52;;;;;;;14.50;4.10;;;;;;;12.37;100.00;102063.22;5067590;28;20056;-47
2023/10/05 04:10:23;;;;;;;15.40;4.55;;;;;;;12.37;100.00;102065.84;5070316;28;20446;-44
2023/10/05 04:12:54;;;;;;;15.13;4.38;;;;;;;12.37;100.00;102068.50;5067740;28;20048;-43
2023/10/05 04:15:23;;;;;;;14.45;4.05;;;;;;;12.38;100.00;102067.56;5068065;28;20051;-44
2023/10/05 04:17:52;;;;;;;12.20;4.18;;;;;;;12.39;100.00;102068.41;5067883;28;20123;-46
2023/10/05 04:20:27;;;;;;;11.20;3.60;;;;;;;12.38;100.00;102069.34;5067505;28;20079;-46
2023/10/05 04:22:55;;;;;;;16.40;4.53;;;;;;;12.33;100.00;102074.88;5067685;28;20040;-45
2023/10/05 04:25:25;;;;;;;13.73;4.30;;;;;;;12.34;100.00;102072.16;5066572;28;20047;-47
2023/10/05 04:27:53;;;;;;;10.50;4.28;;;;;;;12.29;100.00;102071.53;5067864;28;20110;-44
2023/10/05 04:30:22;;;;;;;13.15;4.35;;;;;;;12.29;100.00;102074.16;5067639;28;20094;-43
2023/10/05 04:32:50;;;;;;;17.00;4.43;;;;;;;12.28;100.00;102077.72;5068340;28;20048;-44
2023/10/05 04:35:22;;;;;;;14.23;4.70;;;;;;;12.26;100.00;102074.34;5070169;28;20040;-44
2023/10/05 04:37:52;;;;;;;12.98;5.10;;;;;;;12.23;100.00;102085.06;5066709;28;20062;-45
2023/10/05 04:40:22;;;;;;;14.25;4.70;;;;;;;12.25;100.00;102079.69;5068763;28;20048;-45
2023/10/05 04:42:52;;;;;;;13.93;4.65;;;;;;;12.20;100.00;102076.44;5072678;28;20049;-46
2023/10/05 04:45:20;;;;;;;15.07;4.18;;;;;;;12.20;100.00;102076.44;5072273;28;20056;-46
2023/10/05 04:47:49;;;;;;;10.65;4.38;;;;;;;12.17;100.00;102085.38;5071596;28;20044;-46
2023/10/05 04:50:17;;;;;;;12.52;4.22;;;;;;;12.14;100.00;102075.00;5071182;28;20052;-47
2023/10/05 04:52:50;;;;;;;14.52;4.60;;;;;;;12.14;100.00;102077.63;5073600;28;20040;-44
2023/10/05 04:55:23;;;;;;;11.45;4.53;;;;;;;12.10;100.00;102078.72;5069592;28;20811;-46
2023/10/05 04:57:55;;;;;;;14.40;4.75;;;;;;;12.16;100.00;102084.53;5070786;28;20536;-44
2023/10/05 05:03:33;;;;;;;14.82;5.03;;;;;;;12.14;100.00;102069.72;5073556;28;20060;-47
2023/10/05 05:06:10;;;;;;;13.57;5.50;;;;;;;12.09;100.00;102077.88;5070495;28;20040;-44
2023/10/05 05:08:39;;;;;;;14.73;5.03;;;;;;;12.07;100.00;102069.19;5073595;28;20123;-44
2023/10/05 05:11:11;;;;;;;14.10;4.90;;;;;;;12.07;100.00;102070.97;5074006;28;20055;-44
2023/10/05 05:13:41;;;;;;;13.55;4.43;;;;;;;12.06;100.00;102075.38;5070737;28;20075;-46
2023/10/05 05:16:10;;;;;;;11.98;4.13;;;;;;;12.05;100.00;102078.09;5070606;28;20053;-44
2023/10/05 05:18:41;;;;;;;12.63;4.20;;;;;;;12.07;100.00;102079.72;5070672;28;20048;-43
2023/10/05 05:21:11;;;;;;;10.35;4.13;;;;;;;11.97;100.00;102081.13;5070773;28;20045;-43
2023/10/05 05:23:41;;;;;;;14.43;5.00;;;;;;;11.94;100.00;102090.06;5071241;28;20048;-46
2023/10/05 05:26:11;;;;;;;11.65;4.30;;;;;;;11.93;100.00;102084.81;5073888;28;20037;-46
2023/10/05 05:28:43;;;;;;;17.10;4.85;;;;;;;11.93;100.00;102085.69;5072393;28;20044;-45
2023/10/05 05:31:16;;;;;;;12.40;4.32;;;;;;;11.89;100.00;102089.41;5070328;28;20519;-44
2023/10/05 05:33:48;;;;;;;13.10;4.20;;;;;;;11.84;100.00;102079.06;5073428;28;20137;-45
2023/10/05 05:36:17;;;;;;;12.60;4.70;;;;;;;11.81;100.00;102087.16;5070357;28;20056;-44
2023/10/05 05:38:47;;;;;;;12.75;4.70;;;;;;;11.79;100.00;102091.66;5071563;28;20064;-47
2023/10/05 05:41:18;;;;;;;13.70;4.38;;;;;;;11.76;100.00;102102.34;5073263;28;20227;-44
2023/10/05 05:43:49;;;;;;;16.60;4.63;;;;;;;11.75;100.00;102103.28;5071252;28;20055;-47
2023/10/05 05:46:17;;;;;;;13.70;4.40;;;;;;;11.74;100.00;102103.34;5070300;28;20047;-45
2023/10/05 05:48:48;;;;;;;13.90;4.47;;;;;;;11.71;100.00;102103.50;5072783;28;20048;-45
2023/10/05 05:51:18;;;;;;;14.93;4.80;;;;;;;11.72;100.00;102111.31;5069201;28;20052;-44
2023/10/05 05:53:46;;;;;;;13.88;4.80;;;;;;;11.74;100.00;102113.88;5071681;28;20048;-46
2023/10/05 05:56:18;;;;;;;12.25;5.30;;;;;;;11.74;100.00;102111.25;5069601;28;20052;-45
2023/10/05 05:58:50;;;;;;;13.45;4.90;;;;;;;11.75;100.00;102108.56;5069947;28;20075;-46
2023/10/05 06:01:20;;;;;;;14.98;5.05;;;;;;;11.75;100.00;102115.59;5070379;28;20041;-48
2023/10/05 06:03:49;;;;;;;14.75;5.32;;;;;;;11.77;100.00;102105.84;5072396;28;20091;-45
2023/10/05 06:06:19;;;;;;;16.05;4.68;;;;;;;11.81;100.00;102112.66;5067764;28;20529;-46
2023/10/05 06:08:49;;;;;;;12.95;4.40;;;;;;;11.82;100.00;102109.06;5071820;28;20079;-46
2023/10/05 06:11:17;;;;;;;13.07;4.70;;;;;;;11.83;100.00;102110.78;5073013;28;20487;-46
2023/10/05 06:13:47;;;;;;;15.43;4.53;;;;;;;11.84;100.00;102115.13;5073044;28;20101;-45
2023/10/05 06:16:17;;;;;;;11.93;4.40;;;;;;;11.87;100.00;102120.25;5071161;28;20463;-45
2023/10/05 06:18:46;;;;;;;12.32;4.75;;;;;;;11.89;100.00;102128.06;5069520;28;20052;-47
2023/10/05 06:21:16;;;;;;;13.95;4.40;;;;;;;11.88;100.00;102119.31;5071976;28;20045;-46
2023/10/05 06:23:44;;;;;;;12.32;4.70;;;;;;;11.92;100.00;102134.06;5070429;28;20048;-46
2023/10/05 06:26:15;;;;;;;12.68;4.65;;;;;;;11.96;100.00;102130.38;5068624;28;20114;-46
2023/10/05 06:28:44;;;;;;;16.50;5.40;;;;;;;11.99;100.00;102127.56;5071615;28;20163;-45
2023/10/05 06:31:13;;;;;;;16.23;4.85;;;;;;;12.00;100.00;102129.28;5069218;28;20055;-46
2023/10/05 06:33:46;;;;;;;13.98;4.65;;;;;;;12.00;100.00;102124.00;5071701;28;20041;-46
2023/10/05 06:36:13;;;;;;;;;;;;;;;12.08;100.00;102126.25;5069952;28;20058;-45
2023/10/05 06:38:45;;;;;;;15.00;4.47;;;;;;;12.11;100.00;102127.91;5069101;28;20394;-45
2023/10/05 06:41:20;;;;;;;18.08;4.57;;;;;;;12.15;100.00;102132.09;5067292;28;20053;-45
2023/10/05 06:43:49;;;;;;;12.80;4.78;;;;;;;12.14;100.00;102125.09;5068947;28;20091;-45
2023/10/05 06:46:20;;;;;;;13.25;4.47;;;;;;;12.17;100.00;102132.84;5071281;28;20480;-45
2023/10/05 06:48:50;;;;;;;10.90;4.07;;;;;;;12.21;100.00;102134.38;5069462;28;20055;-45
2023/10/05 06:51:28;;;;;;;16.23;4.75;;;;;;;12.24;100.00;102136.00;5066676;28;20045;-44
2023/10/05 06:53:58;;;;;;;12.63;4.47;;;;;;;12.24;100.00;102139.50;5068811;28;20070;-45
2023/10/05 06:56:27;;;;;;;12.57;4.40;;;;;;;12.27;100.00;102152.53;5068863;28;20041;-47
2023/10/05 06:58:55;;;;;;;12.68;4.57;;;;;;;12.28;100.00;102150.75;5072004;28;20048;-47
2023/10/05 07:01:24;;;;;;;12.73;4.70;;;;;;;12.33;100.00;102149.56;5068283;28;20044;-44
2023/10/05 07:03:55;;;;;;;10.75;4.47;;;;;;;12.38;100.00;102152.00;5069138;28;20049;-45
2023/10/05 07:06:24;;;;;;;22.43;5.33;;;;;;;12.43;100.00;102154.38;5070532;28;20634;-44
2023/10/05 07:08:53;;;;;;;9.00;4.30;;;;;;;12.47;100.00;102159.41;5068855;28;20048;-47
2023/10/05 07:11:21;;;;;;;12.75;4.45;;;;;;;12.50;100.00;102158.38;5067272;28;20040;-47
2023/10/05 07:13:50;;;;;;;14.02;5.15;;;;;;;12.55;100.00;102164.28;5070641;28;20044;-45
2023/10/05 07:16:20;;;;;;;14.32;4.80;;;;;;;12.63;100.00;102166.53;5068392;28;20076;-46
2023/10/05 07:18:49;;;;;;;12.63;4.90;;;;;;;12.64;100.00;102163.81;5068231;28;20052;-45
2023/10/05 07:21:20;;;;;;;10.40;4.28;;;;;;;12.72;100.00;102173.97;5067986;28;20510;-43
2023/10/05 07:23:48;;;;;;;12.20;4.47;;;;;;;12.78;100.00;102167.50;5069077;28;20075;-48
2023/10/05 07:26:16;;;;;;;9.13;4.10;;;;;;;12.83;100.00;102179.53;5066591;28;20048;-45
2023/10/05 07:28:46;;;;;;;12.82;5.13;;;;;;;12.91;100.00;102183.53;5068048;28;20051;-46
2023/10/05 07:31:14;;;;;;;15.95;4.80;;;;;;;12.97;100.00;102186.69;5070548;28;20053;-46
2023/10/05 07:33:42;;;;;;;14.27;4.80;;;;;;;13.04;100.00;102194.28;5071721;28;20517;-44
2023/10/05 07:36:13;;;;;;;13.35;4.85;;;;;;;13.08;100.00;102194.03;5071569;28;20055;-44
2023/10/05 07:38:44;;;;;;;10.98;3.97;;;;;;;13.14;100.00;102198.13;5067325;28;20052;-48
2023/10/05 07:41:12;;;;;;;12.68;4.50;;;;;;;13.23;100.00;102205.56;5066461;28;20385;-45
2023/10/05 07:43:40;;;;;;;13.70;4.15;;;;;;;13.26;100.00;102208.00;5071373;28;20059;-44
2023/10/05 07:46:16;;;;;;;9.77;3.72;;;;;;;13.35;100.00;102207.56;5071234;28;20056;-46
2023/10/05 07:48:45;;;;;;;16.38;4.97;;;;;;;13.43;100.00;102203.63;5071549;28;20049;-47
2023/10/05 07:51:15;;;;;;;13.18;4.65;;;;;;;13.56;100.00;102209.09;5068608;28;20068;-45
2023/10/05 07:53:45;;;;;;;11.82;4.95;;;;;;;13.62;100.00;102209.59;5068754;28;20049;-45
2023/10/05 07:56:13;;;;;;;12.65;4.30;;;;;;;13.73;100.00;102221.34;5066607;28;20056;-46
2023/10/05 07:58:44;;;;;;;10.73;4.53;;;;;;;13.84;100.00;102227.72;5067596;28;20055;-45
2023/10/05 08:01:14;;;;;;;12.82;3.85;;;;;;;13.90;100.00;102226.53;5067920;28;20475;-44
2023/10/05 08:03:43;;;;;;;14.18;4.95;;;;;;;13.96;100.00;102231.47;5068329;28;20462;-45
2023/10/05 08:06:15;;;;;;;11.07;4.10;;;;;;;14.02;100.00;102238.19;5067087;28;20746;-45
2023/10/05 08:08:45;;;;;;;11.70;4.15;;;;;;;14.08;100.00;102227.25;5068421;28;20052;-45
2023/10/05 08:11:14;;;;;;;12.43;3.95;;;;;;;14.16;100.00;102238.22;5065891;28;20124;-45
2023/10/05 08:13:43;;;;;;;12.85;4.10;;;;;;;14.21;100.00;102243.28;5069787;28;20045;-44
2023/10/05 08:16:13;;;;;;;11.77;4.10;;;;;;;14.30;100.00;102240.09;5071755;28;20048;-46
2023/10/05 08:18:42;;;;;;;12.27;4.45;;;;;;;14.40;100.00;102242.16;5070903;28;20052;-44
2023/10/05 08:21:10;;;;;;;13.20;4.35;;;;;;;14.46;100.00;102236.53;5072129;28;20039;-45
2023/10/05 08:23:38;;;;;;;10.38;4.20;;;;;;;14.58;100.00;102241.09;5074920;28;20059;-46
2023/10/05 08:26:10;;;;;;;12.25;4.07;;;;;;;14.69;100.00;102238.66;5075280;28;20140;-46
2023/10/05 08:28:40;;;;;;;12.73;3.90;;;;;;;14.83;100.00;102235.22;5075021;28;20102;-47
2023/10/05 08:31:11;;;;;;;13.48;4.30;;;;;;;14.97;100.00;102238.78;5074922;28;20041;-45
2023/10/05 08:33:40;;;;;;;12.00;3.80;;;;;;;15.13;100.00;102244.81;5074917;28;20098;-45
2023/10/05 08:36:12;;;;;;;14.80;4.05;;;;;;;15.31;100.00;102255.22;5074880;28;20127;-45
2023/10/05 08:38:40;;;;;;;12.13;3.83;;;;;;;15.44;100.00;102256.16;5074883;28;20171;-44
2023/10/05 08:41:14;;;;;;;16.17;3.78;;;;;;;15.55;100.00;102252.81;5071061;28;20466;-45
2023/10/05 08:43:46;;;;;;;12.15;3.67;;;;;;;15.65;100.00;102256.59;5071423;28;20368;-44
2023/10/05 08:46:18;;;;;;;10.35;3.75;;;;;;;15.83;100.00;102251.94;5073517;28;20049;-43
2023/10/05 08:48:47;;;;;;;10.27;3.80;;;;;;;15.86;100.00;102249.06;5073421;28;20067;-45
2023/10/05 08:51:16;;;;;;;13.20;4.00;;;;;;;16.07;100.00;102253.06;5071030;28;20055;-45
2023/10/05 08:53:48;;;;;;;9.18;3.65;;;;;;;16.21;100.00;102252.97;5071604;28;20053;-43
2023/10/05 08:56:20;;;;;;;9.65;3.40;;;;;;;16.27;100.00;102249.94;5070136;28;20044;-44
2023/10/05 08:58:49;;;;;;;9.50;3.65;;;;;;;16.33;100.00;102254.84;5070008;28;20063;-46
2023/10/05 09:01:24;;;;;;;12.57;3.42;;;;;;;16.39;100.00;102257.06;5070668;28;20048;-46
2023/10/05 09:04:01;;;;;;;9.15;3.53;;;;;;;16.51;100.00;102254.53;5085988;28;20048;-45
2023/10/05 09:06:30;;;;;;;10.45;3.33;;;;;;;16.65;100.00;102254.44;5073575;28;20040;-47
2023/10/05 09:09:13;;;;;;;9.52;3.33;;;;;;;16.77;100.00;102267.81;5073639;28;20045;-46
2023/10/05 09:11:43;;;;;;;13.98;3.65;;;;;;;16.80;100.00;102272.94;5069956;28;20452;-44
2023/10/05 09:14:23;;;;;;;13.48;3.88;;;;;;;16.86;100.00;102277.81;5070328;28;20613;-47
2023/10/05 09:16:55;;;;;;;11.10;3.47;;;;;;;16.81;100.00;102280.81;5071130;28;20850;-45
2023/10/05 09:19:29;;;;;;;12.32;3.78;;;;;;;16.83;100.00;102284.19;5071540;28;20053;-44
2023/10/05 09:22:10;;;;;;;9.77;2.90;;;;;;;16.96;100.00;102286.03;5070791;28;20119;-45
2023/10/05 09:24:43;;;;;;;14.05;3.40;;;;;;;17.05;100.00;102285.38;5070177;28;20044;-46
2023/10/05 09:27:17;;;;;;;9.25;3.13;;;;;;;17.04;100.00;102299.63;5069537;28;20542;-44
2023/10/05 09:29:46;;;;;;;10.73;3.38;;;;;;;17.12;100.00;102307.91;5071121;28;20055;-46
2023/10/05 09:32:25;;;;;;;10.50;3.50;;;;;;;17.12;100.00;102310.56;5070476;28;20037;-45
2023/10/05 09:34:56;;;;;;;10.43;3.40;;;;;;;17.11;100.00;102313.34;5072016;28;20044;-47
2023/10/05 09:37:27;;;;;;;15.15;4.03;;;;;;;17.21;100.00;102319.72;5070886;28;20418;-48
2023/10/05 09:39:59;;;;;;;10.80;3.08;;;;;;;17.16;100.00;102317.38;5069743;28;20056;-46
2023/10/05 09:42:33;;;;;;;12.90;3.65;;;;;;;17.19;100.00;102321.63;5069767;28;20045;-44
2023/10/05 09:45:08;;;;;;;13.23;3.50;;;;;;;17.21;100.00;102322.38;5070322;28;20079;-48
2023/10/05 09:47:40;;;;;;;11.52;2.90;;;;;;;17.20;100.00;102323.34;5070441;28;20130;-45
2023/10/05 09:50:12;;;;;;;10.32;3.60;;;;;;;17.20;100.00;102323.34;5070176;28;20499;-45
2023/10/05 09:52:45;;;;;;;10.80;3.07;;;;;;;17.21;100.00;102325.88;5071159;28;20044;-46
2023/10/05 09:55:17;;;;;;;;;;;;;;;17.19;100.00;102325.16;5074361;28;20507;-44
2023/10/05 09:57:51;;;;;;;11.98;3.13;;;;;;;17.20;100.00;102318.03;5073477;28;19928;-47
2023/10/05 10:00:47;;;;;;;11.93;3.17;;;;;;;17.24;100.00;102316.84;5071092;28;20067;-46
2023/10/05 10:03:17;;;;;;;11.40;3.22;;;;;;;17.28;100.00;102314.84;5070605;28;20052;-45
2023/10/05 10:05:51;;;;;;;13.43;3.53;;;;;;;17.31;100.00;102309.28;5068453;28;20076;-46
2023/10/05 10:08:23;;;;;;;14.30;3.63;;;;;;;17.41;100.00;102302.38;5069995;28;20048;-46
2023/10/05 10:11:02;;;;;;;9.95;3.10;;;;;;;17.41;100.00;102302.38;5068330;28;20130;-47
2023/10/05 10:13:38;;;;;;;12.48;3.08;;;;;;;17.49;100.00;102304.47;5072961;28;20500;-46
2023/10/05 10:16:26;;;;;;;13.98;3.05;;;;;;;17.51;100.00;102299.91;5071810;28;20098;-45
2023/10/05 10:19:03;;;;;;;11.57;2.90;;;;;;;17.59;100.00;102308.19;5069707;28;20091;-45
2023/10/05 10:21:41;;;;;;;12.10;3.00;;;;;;;17.59;100.00;102302.84;5069293;28;20083;-44
2023/10/05 10:24:12;;;;;;;9.55;2.72;;;;;;;17.63;100.00;102303.47;5069984;28;20082;-45
2023/10/05 10:26:44;;;;;;;14.30;3.50;;;;;;;17.68;100.00;102304.00;5068326;28;20136;-45
2023/10/05 10:29:16;;;;;;;14.50;3.10;;;;;;;17.72;100.00;102303.69;5067687;28;20056;-45
2023/10/05 10:31:48;;;;;;;11.60;2.88;;;;;;;17.73;100.00;102302.69;5069850;28;20044;-46
2023/10/05 10:34:42;;;;;;;12.10;2.85;;;;;;;17.83;100.00;102307.34;5069499;28;20044;-46
2023/10/05 10:37:11;;;;;;;13.07;3.08;;;;;;;17.79;100.00;102313.84;5067409;28;20079;-45
2023/10/05 10:39:39;;;;;;;12.70;3.00;;;;;;;17.84;100.00;102314.38;5069208;28;20703;-46
2023/10/05 10:42:09;;;;;;;11.95;2.83;;;;;;;17.92;100.00;102316.53;5069681;28;20048;-46
2023/10/05 10:44:57;;;;;;;14.18;3.42;;;;;;;17.97;100.00;102317.88;5068901;28;20138;-46
2023/10/05 10:47:27;;;;;;;12.15;3.03;;;;;;;17.97;100.00;102315.22;5068831;28;20049;-44
2023/10/05 10:50:11;;;;;;;11.50;3.22;;;;;;;18.04;100.00;102316.47;5069081;28;20114;-47
2023/10/05 10:52:40;;;;;;;13.25;3.35;;;;;;;18.18;100.00;102314.59;5069370;28;20032;-46
2023/10/05 10:55:14;;;;;;;8.30;2.72;;;;;;;18.24;100.00;102308.78;5068401;28;20048;-45
2023/10/05 10:57:44;;;;;;;12.88;2.70;;;;;;;18.31;100.00;102315.38;5069428;28;20055;-47
2023/10/05 11:03:09;;;;;;;9.88;2.85;;;;;;;18.30;100.00;102313.66;5083323;28;20044;-46
2023/10/05 11:05:39;;;;;;;11.80;3.13;;;;;;;18.23;100.00;102315.94;5087827;28;20052;-47
2023/10/05 11:08:11;;;;;;;12.30;3.65;;;;;;;18.32;100.00;102309.06;5088997;28;20495;-46
2023/10/05 11:10:41;;;;;;;11.95;2.75;;;;;;;18.35;100.00;102318.63;5087447;28;20074;-48
2023/10/05 11:13:14;;;;;;;9.93;2.83;;;;;;;18.40;100.00;102319.16;5088854;28;20125;-46
2023/10/05 11:15:57;;;;;;;8.85;2.85;;;;;;;18.49;100.00;102312.28;5089430;28;20044;-48
2023/10/05 11:18:30;;;;;;;11.07;2.78;;;;;;;18.63;100.00;102303.25;5089369;28;20130;-46
2023/10/05 11:21:09;;;;;;;10.75;3.28;;;;;;;18.66;100.00;102309.16;5088683;28;20051;-47
2023/10/05 11:23:44;;;;;;;9.57;3.10;;;;;;;18.82;100.00;102318.66;5089136;28;20048;-47
2023/10/05 11:26:18;;;;;;;12.90;3.42;;;;;;;18.82;100.00;102306.19;5087501;28;20585;-46
2023/10/05 11:28:49;;;;;;;9.80;2.63;;;;;;;18.96;100.00;102301.63;5088485;28;20094;-46
2023/10/05 11:31:23;;;;;;;11.73;3.40;;;;;;;19.00;100.00;102298.59;5088817;28;20135;-46
2023/10/05 11:34:00;;;;;;;10.25;2.72;;;;;;;19.00;100.00;102303.09;5088571;28;20129;-46
2023/10/05 11:36:51;;;;;;;12.85;3.30;;;;;;;18.99;100.00;102298.72;5088863;28;20044;-49
2023/10/05 11:39:27;;;;;;;;;;;;;;;18.97;100.00;102296.19;5092397;28;20071;-46
2023/10/05 11:41:58;;;;;;;9.40;2.80;;;;;;;18.92;100.00;102298.34;5091535;28;19920;-47